Time;durP1;ratioP1;P1;durP2;ratioP2;P2;SDS_P1;SDS_P2;PMS_P1;PMS_P2;Temp;Humidity;BMP_temperature;BMP_pressure;BME280_temperature;BME280_humidity;BME280_pressure;Samples;Min_cycle;Max_cycle;Signal;HPM_P1;HPM_P2
2024/01/13 00:00:38;;;;;;;100.90;27.83;;;;;;;-6.51;100.00;96877.81;2091788;28;20041;-58
2024/01/13 00:01:39;;;;;;;71.90;19.35;;;;;;;-6.46;100.00;96877.16;2091333;28;20037;-57
2024/01/13 00:02:40;;;;;;;113.95;31.85;;;;;;;-6.48;100.00;96876.22;2090987;28;20040;-58
2024/01/13 00:03:41;;;;;;;120.57;32.88;;;;;;;-6.44;100.00;96880.59;2090697;28;20031;-58
2024/01/13 00:04:42;;;;;;;65.30;17.08;;;;;;;-6.42;100.00;96875.56;2090649;28;20044;-58
2024/01/13 00:05:44;;;;;;;96.30;26.67;;;;;;;-6.51;100.00;96872.75;2090773;28;20377;-58
2024/01/13 00:06:45;;;;;;;110.65;29.20;;;;;;;-6.47;100.00;96872.91;2090866;28;20036;-58
2024/01/13 00:07:46;;;;;;;103.45;30.75;;;;;;;-6.39;100.00;96877.34;2090505;28;20048;-57
2024/01/13 00:08:47;;;;;;;75.35;21.98;;;;;;;-6.40;100.00;96871.44;2097135;28;20052;-57
2024/01/13 00:09:48;;;;;;;104.82;28.80;;;;;;;-6.39;100.00;96869.75;2097865;28;20727;-57
2024/01/13 00:10:49;;;;;;;94.22;26.73;;;;;;;-6.40;100.00;96863.00;2090349;28;20044;-62
2024/01/13 00:11:50;;;;;;;118.15;34.17;;;;;;;-6.37;100.00;96863.94;2089495;28;20056;-58
2024/01/13 00:12:51;;;;;;;109.85;30.58;;;;;;;-6.32;100.00;96867.47;2089340;28;20057;-57
2024/01/13 00:13:52;;;;;;;103.32;30.25;;;;;;;-6.44;100.00;96860.38;2089961;28;20049;-57
2024/01/13 00:14:53;;;;;;;84.22;24.63;;;;;;;-6.41;100.00;96868.84;2090360;28;20040;-57
2024/01/13 00:15:55;;;;;;;100.43;27.13;;;;;;;-6.44;100.00;96857.00;2090453;28;20041;-57
2024/01/13 00:16:56;;;;;;;98.20;24.95;;;;;;;-6.42;100.00;96857.88;2089852;28;20500;-57
2024/01/13 00:17:57;;;;;;;93.22;28.90;;;;;;;-6.40;100.00;96857.94;2089647;28;20049;-58
2024/01/13 00:18:58;;;;;;;104.10;29.08;;;;;;;-6.46;100.00;96856.06;2090585;28;20040;-58
2024/01/13 00:19:59;;;;;;;98.63;26.00;;;;;;;-6.50;100.00;96856.78;2090591;28;20056;-57
2024/01/13 00:21:00;;;;;;;96.65;27.92;;;;;;;-6.48;100.00;96858.53;2090220;28;20075;-57
2024/01/13 00:22:01;;;;;;;89.45;24.88;;;;;;;-6.46;100.00;96859.44;2090425;28;20045;-58
2024/01/13 00:23:02;;;;;;;87.35;25.83;;;;;;;-6.42;100.00;96860.41;2090566;28;20074;-57
2024/01/13 00:24:04;;;;;;;92.25;25.55;;;;;;;-6.44;100.00;96860.38;2091407;28;20045;-57
2024/01/13 00:25:05;;;;;;;80.72;24.40;;;;;;;-6.43;100.00;96861.22;2090471;28;20032;-58
2024/01/13 00:26:06;;;;;;;79.00;21.85;;;;;;;-6.46;100.00;96863.66;2090204;28;20045;-57
2024/01/13 00:27:07;;;;;;;77.50;21.33;;;;;;;-6.52;100.00;96861.78;2090333;28;20049;-58
2024/01/13 00:28:09;;;;;;;71.88;21.63;;;;;;;-6.54;100.00;96860.03;2090309;28;20060;-57
2024/01/13 00:29:11;;;;;;;62.67;17.85;;;;;;;-6.56;100.00;96862.47;2090440;28;20049;-58
2024/01/13 00:30:12;;;;;;;67.63;20.42;;;;;;;-6.60;100.00;96849.69;2090353;28;20033;-58
2024/01/13 00:31:13;;;;;;;61.40;19.88;;;;;;;-6.57;100.00;96860.78;2090290;28;20492;-58
2024/01/13 00:32:14;;;;;;;62.10;17.70;;;;;;;-6.56;100.00;96857.44;2090054;28;20051;-58
2024/01/13 00:33:15;;;;;;;58.38;17.77;;;;;;;-6.56;100.00;96847.31;2090760;28;20151;-58
2024/01/13 00:34:16;;;;;;;72.60;20.83;;;;;;;-6.52;100.00;96849.16;2090046;28;20053;-58
2024/01/13 00:35:17;;;;;;;70.22;22.83;;;;;;;-6.49;100.00;96854.31;2090403;28;20055;-58
2024/01/13 00:36:18;;;;;;;78.90;23.17;;;;;;;-6.47;100.00;96846.75;2090421;28;20044;-58
2024/01/13 00:37:19;;;;;;;72.97;20.90;;;;;;;-6.50;100.00;96851.72;2089974;28;20055;-57
2024/01/13 00:38:21;;;;;;;74.43;23.20;;;;;;;-6.52;100.00;96846.63;2090298;28;20044;-58
2024/01/13 00:39:22;;;;;;;82.28;21.73;;;;;;;-6.52;100.00;96848.28;2090361;28;20393;-58
2024/01/13 00:40:23;;;;;;;72.65;21.77;;;;;;;-6.52;100.00;96846.63;2090272;28;20041;-58
2024/01/13 00:41:24;;;;;;;75.15;22.25;;;;;;;-6.52;100.00;96843.22;2089551;28;20040;-58
2024/01/13 00:42:25;;;;;;;81.10;21.35;;;;;;;-6.50;100.00;96846.66;2089710;28;20041;-58
2024/01/13 00:43:26;;;;;;;76.97;22.52;;;;;;;-6.53;100.00;96842.38;2090165;28;20029;-58
2024/01/13 00:44:27;;;;;;;73.55;21.23;;;;;;;-6.46;100.00;96835.84;2090195;28;20056;-58
2024/01/13 00:45:28;;;;;;;74.07;21.63;;;;;;;-6.52;100.00;96843.22;2090354;28;20373;-57
2024/01/13 00:46:29;;;;;;;63.05;20.00;;;;;;;-6.55;100.00;96840.59;2090155;28;20029;-58
2024/01/13 00:47:31;;;;;;;65.85;17.63;;;;;;;-6.55;100.00;96833.00;2090246;28;20041;-58
2024/01/13 00:48:34;;;;;;;60.13;19.50;;;;;;;-6.54;100.00;96843.19;2090424;28;20064;-58
2024/01/13 00:49:35;;;;;;;50.85;14.77;;;;;;;-6.60;100.00;96837.94;2089964;28;20044;-58
2024/01/13 00:50:36;;;;;;;47.35;15.98;;;;;;;-6.63;100.00;96842.88;2090250;28;20053;-58
2024/01/13 00:51:37;;;;;;;67.20;20.33;;;;;;;-6.70;100.00;96848.53;2090133;28;20036;-58
2024/01/13 00:52:38;;;;;;;77.43;23.88;;;;;;;-6.70;100.00;96849.41;2090350;28;20495;-57
2024/01/13 00:53:39;;;;;;;67.07;23.48;;;;;;;-6.68;100.00;96847.78;2090222;28;20052;-58
2024/01/13 00:54:43;;;;;;;72.15;24.55;;;;;;;-6.66;100.00;96848.69;2090270;28;20041;-58
2024/01/13 00:55:44;;;;;;;69.03;23.48;;;;;;;-6.59;100.00;96851.44;2089790;28;20505;-58
2024/01/13 00:56:45;;;;;;;69.70;21.30;;;;;;;-6.57;100.00;96847.28;2096904;28;20055;-57
2024/01/13 00:57:46;;;;;;;77.22;22.27;;;;;;;-6.56;100.00;96852.38;2097627;28;20048;-58
2024/01/13 00:58:47;;;;;;;68.40;23.13;;;;;;;-6.57;100.00;96849.81;2090355;28;20052;-58
2024/01/13 00:59:48;;;;;;;70.18;24.90;;;;;;;-6.58;100.00;96843.03;2090203;28;20488;-58
2024/01/13 01:00:49;;;;;;;81.13;25.75;;;;;;;-6.54;100.00;96848.25;2090489;28;20044;-58
2024/01/13 01:01:50;;;;;;;50.47;15.95;;;;;;;-6.56;100.00;96846.47;2089716;28;20057;-58
2024/01/13 01:02:51;;;;;;;74.13;25.67;;;;;;;-6.56;100.00;96854.91;2090215;28;20049;-58
2024/01/13 01:03:53;;;;;;;81.72;25.58;;;;;;;-6.53;100.00;96856.66;2090553;28;20052;-58
2024/01/13 01:04:54;;;;;;;77.97;25.40;;;;;;;-6.54;100.00;96852.44;2090544;28;20044;-58
2024/01/13 01:05:55;;;;;;;73.20;22.38;;;;;;;-6.59;100.00;96844.69;2089840;28;20049;-57
2024/01/13 01:06:56;;;;;;;77.13;26.38;;;;;;;-6.55;100.00;96853.22;2090160;28;20060;-58
2024/01/13 01:07:57;;;;;;;82.10;25.58;;;;;;;-6.53;100.00;96849.09;2089915;28;20416;-57
2024/01/13 01:08:58;;;;;;;81.22;26.23;;;;;;;-6.56;100.00;96852.38;2090119;28;20033;-58
2024/01/13 01:09:59;;;;;;;73.18;24.88;;;;;;;-6.56;100.00;96851.53;2090400;28;20044;-58
2024/01/13 01:11:00;;;;;;;82.18;26.23;;;;;;;-6.58;100.00;96853.97;2090144;28;20045;-58
2024/01/13 01:12:01;;;;;;;74.65;26.23;;;;;;;-6.56;100.00;96859.09;2089199;28;20404;-58
2024/01/13 01:13:03;;;;;;;83.60;24.73;;;;;;;-6.55;100.00;96855.75;2089932;28;20063;-58
2024/01/13 01:14:04;;;;;;;74.40;25.48;;;;;;;-6.55;100.00;96860.81;2090152;28;20416;-58
2024/01/13 01:15:05;;;;;;;83.68;26.80;;;;;;;-6.55;100.00;96860.81;2089360;28;20051;-58
2024/01/13 01:16:06;;;;;;;77.93;25.92;;;;;;;-6.53;100.00;96859.19;2089581;28;20053;-58
2024/01/13 01:17:08;;;;;;;74.82;24.20;;;;;;;-6.55;100.00;96850.69;2089648;28;20048;-58
2024/01/13 01:18:09;;;;;;;80.97;27.67;;;;;;;-6.53;100.00;96852.47;2090159;28;20041;-58
2024/01/13 01:19:10;;;;;;;81.45;26.38;;;;;;;-6.52;100.00;96848.28;2089792;28;20412;-58
2024/01/13 01:20:11;;;;;;;78.40;26.13;;;;;;;-6.50;100.00;96852.56;2090117;28;20056;-58
2024/01/13 01:21:13;;;;;;;85.32;28.52;;;;;;;-6.52;100.00;96855.84;2090343;28;20047;-58
2024/01/13 01:22:14;;;;;;;88.43;30.88;;;;;;;-6.51;100.00;96843.28;2090069;28;20404;-58
2024/01/13 01:23:15;;;;;;;82.57;28.48;;;;;;;-6.47;100.00;96856.88;2090129;28;20041;-58
2024/01/13 01:24:16;;;;;;;83.53;28.60;;;;;;;-6.43;100.00;96857.03;2090097;28;20040;-58
2024/01/13 01:25:17;;;;;;;93.60;28.15;;;;;;;-6.39;100.00;96860.50;2090129;28;20059;-58
2024/01/13 01:26:18;;;;;;;98.43;32.17;;;;;;;-6.43;100.00;96862.06;2090190;28;20037;-58
2024/01/13 01:27:20;;;;;;;90.93;29.48;;;;;;;-6.44;100.00;96852.78;2090057;28;20036;-58
2024/01/13 01:28:22;;;;;;;92.07;31.90;;;;;;;-6.48;100.00;96850.94;2090146;28;20049;-58
2024/01/13 01:29:23;;;;;;;94.03;27.48;;;;;;;-6.45;100.00;96855.25;2090165;28;20047;-58
2024/01/13 01:30:24;;;;;;;95.68;32.28;;;;;;;-6.51;100.00;96850.00;2090102;28;20038;-58
2024/01/13 01:31:25;;;;;;;97.28;31.75;;;;;;;-6.45;100.00;96857.78;2089943;28;20408;-57
2024/01/13 01:32:26;;;;;;;99.25;31.73;;;;;;;-6.44;100.00;96852.78;2090032;28;20225;-58
2024/01/13 01:33:28;;;;;;;103.45;32.90;;;;;;;-6.45;100.00;96851.06;2089758;28;20049;-58
2024/01/13 01:34:29;;;;;;;98.03;30.88;;;;;;;-6.45;100.00;96852.72;2090167;28;20041;-57
2024/01/13 01:35:30;;;;;;;94.72;29.50;;;;;;;-6.46;100.00;96849.34;2089887;28;20397;-57
2024/01/13 01:36:31;;;;;;;88.68;28.80;;;;;;;-6.48;100.00;96850.09;2090270;28;20036;-58
2024/01/13 01:37:35;;;;;;;92.22;28.48;;;;;;;-6.55;100.00;96838.06;2089860;28;20053;-58
2024/01/13 01:38:36;;;;;;;99.22;30.42;;;;;;;-6.54;100.00;96845.72;2089772;28;20053;-57
2024/01/13 01:39:37;;;;;;;98.55;30.35;;;;;;;-6.51;100.00;96847.47;2089735;28;20053;-58
2024/01/13 01:40:38;;;;;;;88.10;27.95;;;;;;;-6.51;100.00;96845.81;2089855;28;20053;-57
2024/01/13 01:41:39;;;;;;;92.25;31.15;;;;;;;-6.50;100.00;96856.78;2088466;28;20056;-57
2024/01/13 01:42:41;;;;;;;98.70;31.02;;;;;;;-6.53;100.00;96849.94;2089565;28;20513;-58
2024/01/13 01:43:42;;;;;;;83.88;31.10;;;;;;;-6.47;100.00;96852.69;2090035;28;20056;-58
2024/01/13 01:44:43;;;;;;;92.15;33.33;;;;;;;-6.45;100.00;96861.16;2090697;28;20048;-58
2024/01/13 01:45:45;;;;;;;83.50;30.23;;;;;;;-6.40;100.00;96850.34;2091048;28;20481;-58
2024/01/13 01:46:46;;;;;;;102.28;32.00;;;;;;;-6.41;100.00;96843.56;2083314;28;20053;-58
2024/01/13 01:47:47;;;;;;;114.60;34.72;;;;;;;-6.48;100.00;96845.91;2082748;28;20052;-58
2024/01/13 01:48:48;;;;;;;102.03;35.28;;;;;;;-6.51;100.00;96837.38;2082830;28;20509;-58
2024/01/13 01:49:49;;;;;;;108.13;29.40;;;;;;;-6.51;100.00;96840.75;2082528;28;20049;-58
2024/01/13 01:50:51;;;;;;;103.50;31.83;;;;;;;-6.51;100.00;96844.97;2082533;28;20061;-58
2024/01/13 01:51:52;;;;;;;106.13;32.55;;;;;;;-6.52;100.00;96840.69;2090514;28;20064;-57
2024/01/13 01:52:53;;;;;;;104.57;32.47;;;;;;;-6.52;100.00;96846.63;2090724;28;20048;-57
2024/01/13 01:53:55;;;;;;;112.07;33.22;;;;;;;-6.53;100.00;96844.03;2082853;28;20041;-57
2024/01/13 01:54:56;;;;;;;104.78;32.92;;;;;;;-6.52;100.00;96834.00;2082913;28;20041;-57
2024/01/13 01:55:57;;;;;;;106.63;33.28;;;;;;;-6.50;100.00;96836.56;2074716;28;20049;-59
2024/01/13 01:56:59;;;;;;;110.05;34.42;;;;;;;-6.50;100.00;96832.34;2074722;28;20405;-58
2024/01/13 01:58:00;;;;;;;103.70;33.10;;;;;;;-6.52;100.00;96833.09;2090954;28;20053;-57
2024/01/13 01:59:02;;;;;;;112.55;35.30;;;;;;;-6.50;100.00;96829.81;2082147;28;20052;-57
2024/01/13 02:00:04;;;;;;;116.97;32.25;;;;;;;-6.51;100.00;96825.59;2082862;28;20064;-58
2024/01/13 02:01:12;;;;;;;114.30;34.72;;;;;;;-6.51;100.00;96825.59;2091119;28;20519;-58
2024/01/13 02:02:13;;;;;;;113.70;33.67;;;;;;;-6.51;100.00;96827.25;2083902;28;20049;-58
2024/01/13 02:03:15;;;;;;;106.00;33.17;;;;;;;-6.52;100.00;96821.34;2082582;28;20049;-58
2024/01/13 02:04:16;;;;;;;117.50;35.47;;;;;;;-6.55;100.00;96816.22;2090920;28;20041;-58
2024/01/13 02:05:17;;;;;;;79.60;24.55;;;;;;;-6.57;100.00;96815.28;2091594;28;20055;-58
2024/01/13 02:06:18;;;;;;;129.80;36.35;;;;;;;-6.60;100.00;96810.16;2091304;28;20041;-58
2024/01/13 02:07:20;;;;;;;131.88;38.83;;;;;;;-6.63;100.00;96806.63;2090629;28;20041;-59
2024/01/13 02:08:21;;;;;;;128.68;37.03;;;;;;;-6.64;100.00;96813.38;2082877;28;20412;-58
2024/01/13 02:09:22;;;;;;;136.18;42.65;;;;;;;-6.58;100.00;96813.56;2090756;28;20045;-58
2024/01/13 02:10:23;;;;;;;127.55;40.67;;;;;;;-6.54;100.00;96815.38;2091709;28;20049;-58
2024/01/13 02:11:25;;;;;;;126.53;37.15;;;;;;;-6.51;100.00;96819.69;2090859;28;20036;-58
2024/01/13 02:12:26;;;;;;;135.25;38.65;;;;;;;-6.56;100.00;96806.03;2089774;28;20053;-58
2024/01/13 02:13:27;;;;;;;156.82;45.50;;;;;;;-6.60;100.00;96806.72;2091426;28;20045;-58
2024/01/13 02:14:28;;;;;;;130.68;40.95;;;;;;;-6.60;100.00;96810.16;2091432;28;20060;-58
2024/01/13 02:15:29;;;;;;;151.85;43.33;;;;;;;-6.58;100.00;96805.13;2091396;28;20476;-58
2024/01/13 02:16:31;;;;;;;131.90;42.72;;;;;;;-6.59;100.00;96801.75;2099008;28;20499;-58
2024/01/13 02:17:33;;;;;;;145.40;43.30;;;;;;;-6.60;100.00;96805.09;2098216;28;20048;-57
2024/01/13 02:18:34;;;;;;;135.93;41.75;;;;;;;-6.58;100.00;96810.19;2091604;28;20040;-58
2024/01/13 02:19:35;;;;;;;136.77;40.28;;;;;;;-6.58;100.00;96797.53;2091395;28;20045;-57
2024/01/13 02:20:36;;;;;;;139.95;43.47;;;;;;;-6.53;100.00;96808.66;2091439;28;20048;-58
2024/01/13 02:21:38;;;;;;;143.63;44.92;;;;;;;-6.53;100.00;96806.13;2091464;28;20045;-58
2024/01/13 02:22:39;;;;;;;172.20;44.72;;;;;;;-6.53;100.00;96796.88;2091242;28;20053;-58
2024/01/13 02:23:40;;;;;;;155.40;45.67;;;;;;;-6.53;100.00;96799.41;2091609;28;20048;-58
2024/01/13 02:24:41;;;;;;;147.55;42.05;;;;;;;-6.57;100.00;96802.66;2091318;28;20048;-58
2024/01/13 02:25:42;;;;;;;153.23;44.30;;;;;;;-6.58;100.00;96798.41;2091438;28;20527;-58
2024/01/13 02:26:44;;;;;;;146.13;43.03;;;;;;;-6.53;100.00;96799.41;2098687;28;20040;-58
2024/01/13 02:27:45;;;;;;;143.75;44.30;;;;;;;-6.52;100.00;96798.63;2099154;28;20048;-58
2024/01/13 02:28:46;;;;;;;149.30;44.50;;;;;;;-6.52;100.00;96793.56;2091326;28;20049;-58
2024/01/13 02:29:47;;;;;;;152.65;48.05;;;;;;;-6.52;100.00;96798.63;2091320;28;20040;-58
2024/01/13 02:30:48;;;;;;;143.60;41.42;;;;;;;-6.52;100.00;96790.16;2091403;28;20070;-58
2024/01/13 02:31:49;;;;;;;158.85;44.90;;;;;;;-6.53;100.00;96796.03;2091339;28;20048;-58
2024/01/13 02:32:50;;;;;;;144.55;46.15;;;;;;;-6.56;100.00;96789.22;2091409;28;20045;-58
2024/01/13 02:33:51;;;;;;;155.77;46.10;;;;;;;-6.53;100.00;96794.34;2091436;28;20029;-58
2024/01/13 02:34:52;;;;;;;145.95;46.03;;;;;;;-6.51;100.00;96792.75;2090699;28;20056;-58
2024/01/13 02:35:54;;;;;;;152.55;45.05;;;;;;;-6.51;100.00;96786.84;2090375;28;20053;-58
2024/01/13 02:36:55;;;;;;;147.02;43.17;;;;;;;-6.52;100.00;96782.56;2090951;28;20425;-58
2024/01/13 02:37:56;;;;;;;136.52;41.58;;;;;;;-6.52;100.00;96790.16;2091212;28;20055;-58
2024/01/13 02:38:57;;;;;;;146.93;42.00;;;;;;;-6.53;100.00;96783.38;2091293;28;20048;-58
2024/01/13 02:39:58;;;;;;;151.05;45.10;;;;;;;-6.59;100.00;96781.53;2091291;28;20037;-58
2024/01/13 02:40:59;;;;;;;137.13;45.75;;;;;;;-6.57;100.00;96784.97;2091282;28;20044;-58
2024/01/13 02:42:01;;;;;;;149.02;47.50;;;;;;;-6.52;100.00;96782.56;2091374;28;20477;-58
2024/01/13 02:43:02;;;;;;;140.25;44.58;;;;;;;-6.51;100.00;96781.78;2091327;28;20033;-58
2024/01/13 02:44:03;;;;;;;140.55;43.42;;;;;;;-6.48;100.00;96785.25;2091270;28;20053;-58
2024/01/13 02:45:04;;;;;;;149.82;47.83;;;;;;;-6.47;100.00;96786.09;2091153;28;20056;-58
2024/01/13 02:46:05;;;;;;;148.95;43.67;;;;;;;-6.51;100.00;96784.31;2091139;28;20507;-58
2024/01/13 02:47:06;;;;;;;160.27;48.17;;;;;;;-6.54;100.00;96780.00;2091117;28;20049;-58
2024/01/13 02:48:10;;;;;;;149.30;45.95;;;;;;;-6.57;100.00;96774.00;2090834;28;20068;-58
2024/01/13 02:49:11;;;;;;;171.85;48.38;;;;;;;-6.58;100.00;96780.72;2090909;28;20049;-57
2024/01/13 02:50:13;;;;;;;139.85;42.53;;;;;;;-6.57;100.00;96779.91;2081957;28;20060;-57
2024/01/13 02:51:15;;;;;;;143.10;45.15;;;;;;;-6.57;100.00;96771.50;2082470;28;20045;-57
2024/01/13 02:52:16;;;;;;;146.35;45.75;;;;;;;-6.56;100.00;96770.66;2091142;28;20088;-58
2024/01/13 02:53:17;;;;;;;158.50;45.65;;;;;;;-6.56;100.00;96771.50;2091041;28;20049;-58
2024/01/13 02:54:18;;;;;;;155.30;44.35;;;;;;;-6.58;100.00;96763.03;2091184;28;20048;-58
2024/01/13 02:55:20;;;;;;;154.63;46.08;;;;;;;-6.59;100.00;96765.53;2090714;28;20429;-58
2024/01/13 02:56:21;;;;;;;147.52;44.92;;;;;;;-6.59;100.00;96760.47;2091115;28;20048;-58
2024/01/13 02:57:22;;;;;;;146.38;48.20;;;;;;;-6.57;100.00;96761.38;2091116;28;20045;-57
2024/01/13 02:58:23;;;;;;;159.10;44.60;;;;;;;-6.57;100.00;96762.22;2091168;28;20040;-57
2024/01/13 02:59:24;;;;;;;147.18;45.42;;;;;;;-6.54;100.00;96758.94;2091183;28;20369;-58
2024/01/13 03:00:25;;;;;;;150.95;46.72;;;;;;;-6.52;100.00;96763.25;2091265;28;20039;-58
2024/01/13 03:01:28;;;;;;;142.70;43.38;;;;;;;-6.53;100.00;96753.06;2091360;28;20045;-57
2024/01/13 03:02:30;;;;;;;151.13;47.35;;;;;;;-6.51;100.00;96752.31;2090961;28;20048;-58
2024/01/13 03:03:31;;;;;;;174.90;50.25;;;;;;;-6.46;100.00;96749.94;2091218;28;20041;-58
2024/01/13 03:04:32;;;;;;;164.68;47.63;;;;;;;-6.49;100.00;96749.84;2091297;28;20040;-58
2024/01/13 03:05:33;;;;;;;150.20;47.97;;;;;;;-6.47;100.00;96756.66;2090898;28;20485;-57
2024/01/13 03:06:34;;;;;;;153.18;49.33;;;;;;;-6.50;100.00;96754.00;2091199;28;20044;-58
2024/01/13 03:07:35;;;;;;;155.95;47.33;;;;;;;-6.50;100.00;96754.00;2092136;28;20040;-59
2024/01/13 03:08:36;;;;;;;156.50;46.78;;;;;;;-6.49;100.00;96758.28;2091934;28;20041;-58
2024/01/13 03:09:37;;;;;;;163.95;47.42;;;;;;;-6.48;100.00;96751.53;2092582;28;20048;-58
2024/01/13 03:10:38;;;;;;;161.98;47.00;;;;;;;-6.57;100.00;96751.28;2092644;28;20048;-59
2024/01/13 03:11:40;;;;;;;187.63;51.40;;;;;;;-6.60;100.00;96748.63;2092730;28;20055;-60
2024/01/13 03:12:41;;;;;;;147.70;47.47;;;;;;;-6.62;100.00;96740.16;2091252;28;20033;-59
2024/01/13 03:13:45;;;;;;;159.02;48.30;;;;;;;-6.60;100.00;96749.50;2090840;28;20041;-57
2024/01/13 03:14:46;;;;;;;155.48;46.17;;;;;;;-6.63;100.00;96744.34;2091380;28;20053;-57
2024/01/13 03:15:47;;;;;;;165.10;48.63;;;;;;;-6.68;100.00;96745.88;2091000;28;20053;-58
2024/01/13 03:16:48;;;;;;;161.60;48.50;;;;;;;-6.68;100.00;96743.34;2090833;28;20489;-57
2024/01/13 03:17:49;;;;;;;159.15;45.25;;;;;;;-6.65;100.00;96733.34;2091171;28;20033;-58
2024/01/13 03:18:50;;;;;;;172.90;48.00;;;;;;;-6.63;100.00;96743.47;2090853;28;20047;-58
2024/01/13 03:19:52;;;;;;;181.25;49.33;;;;;;;-6.61;100.00;96739.34;2090939;28;20045;-58
2024/01/13 03:20:53;;;;;;;181.20;50.92;;;;;;;-6.61;100.00;96737.66;2091148;28;20048;-58
2024/01/13 03:21:54;;;;;;;160.90;52.60;;;;;;;-6.66;100.00;96739.19;2091635;28;20048;-58
2024/01/13 03:22:55;;;;;;;194.15;53.63;;;;;;;-6.58;100.00;96731.84;2091298;28;20049;-58
2024/01/13 03:23:56;;;;;;;188.20;52.47;;;;;;;-6.55;100.00;96731.94;2091103;28;20377;-58
2024/01/13 03:24:57;;;;;;;180.60;53.33;;;;;;;-6.55;100.00;96721.84;2090985;28;20052;-59
2024/01/13 03:25:58;;;;;;;192.38;53.92;;;;;;;-6.51;100.00;96729.56;2090842;28;20045;-58
2024/01/13 03:26:59;;;;;;;219.05;55.67;;;;;;;-6.63;100.00;96714.00;2090902;28;20055;-58
2024/01/13 03:28:00;;;;;;;172.40;48.05;;;;;;;-6.61;100.00;96722.50;2091044;28;20503;-58
2024/01/13 03:29:01;;;;;;;171.48;47.97;;;;;;;-6.59;100.00;96725.09;2090538;28;20037;-58
2024/01/13 03:30:03;;;;;;;190.27;52.60;;;;;;;-6.59;100.00;96710.78;2091044;28;20048;-58
2024/01/13 03:31:04;;;;;;;172.90;52.50;;;;;;;-6.61;100.00;96711.53;2090804;28;20041;-58
2024/01/13 03:32:05;;;;;;;161.10;51.70;;;;;;;-6.60;100.00;96703.16;2090887;28;20053;-61
2024/01/13 03:33:06;;;;;;;171.38;52.15;;;;;;;-6.59;100.00;96703.22;2090822;28;20400;-58
2024/01/13 03:34:08;;;;;;;165.15;47.50;;;;;;;-6.57;100.00;96704.13;2090732;28;20512;-58
2024/01/13 03:35:09;;;;;;;169.85;51.97;;;;;;;-6.53;100.00;96702.53;2090225;28;20124;-58
2024/01/13 03:36:10;;;;;;;170.10;49.75;;;;;;;-6.49;100.00;96709.41;2090522;28;20049;-58
2024/01/13 03:37:11;;;;;;;169.40;47.67;;;;;;;-6.48;100.00;96703.53;2090929;28;20087;-58
2024/01/13 03:38:12;;;;;;;151.98;41.30;;;;;;;-6.51;100.00;96689.13;2090969;28;20057;-59
2024/01/13 03:39:13;;;;;;;171.40;49.38;;;;;;;-6.58;100.00;96697.31;2091031;28;20049;-58
2024/01/13 03:40:15;;;;;;;161.10;47.17;;;;;;;-6.58;100.00;96697.31;2091066;28;20044;-58
2024/01/13 03:41:18;;;;;;;166.45;49.20;;;;;;;-6.54;100.00;96691.56;2091529;28;20075;-62
2024/01/13 03:42:19;;;;;;;166.60;50.33;;;;;;;-6.60;100.00;96693.91;2091404;28;20044;-61
2024/01/13 03:43:20;;;;;;;179.07;47.65;;;;;;;-6.55;100.00;96696.56;2091489;28;20049;-59
2024/01/13 03:44:22;;;;;;;175.95;48.53;;;;;;;-6.54;100.00;96693.25;2091877;28;20063;-60
2024/01/13 03:45:23;;;;;;;157.10;43.67;;;;;;;-6.59;100.00;96685.53;2092295;28;20495;-60
2024/01/13 03:46:24;;;;;;;171.32;47.63;;;;;;;-6.60;100.00;96693.03;2092598;28;20032;-66
2024/01/13 03:47:25;;;;;;;157.32;48.85;;;;;;;-6.60;100.00;96693.91;2093073;28;20045;-58
2024/01/13 03:48:26;;;;;;;179.68;50.13;;;;;;;-6.66;100.00;96693.72;2093049;28;20049;-58
2024/01/13 03:49:28;;;;;;;175.48;49.08;;;;;;;-6.68;100.00;96703.78;2092947;28;20043;-69
2024/01/13 03:50:29;;;;;;;166.05;46.72;;;;;;;-6.61;100.00;96697.25;2092211;28;20491;-59
2024/01/13 03:51:30;;;;;;;161.35;44.03;;;;;;;-6.61;100.00;96702.28;2092434;28;20029;-70
2024/01/13 03:52:31;;;;;;;185.35;53.92;;;;;;;-6.58;100.00;96702.38;2092462;28;20040;-59
2024/01/13 03:53:32;;;;;;;191.02;52.15;;;;;;;-6.58;100.00;96707.44;2092328;28;20044;-60
2024/01/13 03:54:33;;;;;;;170.13;48.85;;;;;;;-6.56;100.00;96703.28;2092362;28;20397;-61
2024/01/13 03:55:34;;;;;;;170.60;50.03;;;;;;;-6.55;100.00;96709.19;2091752;28;20037;-58
2024/01/13 03:56:36;;;;;;;174.05;48.63;;;;;;;-6.59;100.00;96705.72;2090972;28;20047;-57
2024/01/13 03:57:37;;;;;;;183.45;54.88;;;;;;;-6.60;100.00;96701.50;2090614;28;20036;-58
2024/01/13 03:58:38;;;;;;;169.23;49.42;;;;;;;-6.57;100.00;96709.16;2090836;28;20551;-58
2024/01/13 03:59:39;;;;;;;236.02;57.28;;;;;;;-6.59;100.00;96707.41;2090475;28;20055;-58
2024/01/13 04:00:40;;;;;;;196.50;53.38;;;;;;;-6.62;100.00;96697.22;2081958;28;20418;-58
2024/01/13 04:01:41;;;;;;;193.38;52.53;;;;;;;-6.58;100.00;96709.97;2081308;28;20045;-63
2024/01/13 04:02:43;;;;;;;177.20;50.30;;;;;;;-6.58;100.00;96701.53;2090525;28;20049;-58
2024/01/13 04:03:44;;;;;;;174.43;48.08;;;;;;;-6.61;100.00;96696.38;2090506;28;20045;-58
2024/01/13 04:04:45;;;;;;;179.90;52.08;;;;;;;-6.60;100.00;96706.56;2090723;28;20477;-58
2024/01/13 04:05:46;;;;;;;190.55;57.05;;;;;;;-6.61;100.00;96702.28;2091273;28;20045;-58
2024/01/13 04:06:47;;;;;;;170.23;50.55;;;;;;;-6.58;100.00;96704.06;2089830;28;20167;-58
2024/01/13 04:07:48;;;;;;;169.35;48.85;;;;;;;-6.58;100.00;96704.91;2088917;28;20475;-58
2024/01/13 04:08:49;;;;;;;188.75;53.20;;;;;;;-6.61;100.00;96703.97;2090612;28;20037;-58
2024/01/13 04:09:51;;;;;;;177.88;52.28;;;;;;;-6.60;100.00;96698.97;2090713;28;20043;-58
2024/01/13 04:10:52;;;;;;;185.15;52.15;;;;;;;-6.65;100.00;96697.97;2090503;28;20071;-58
2024/01/13 04:11:53;;;;;;;195.98;52.80;;;;;;;-6.76;100.00;96701.81;2090384;28;20488;-57
2024/01/13 04:12:55;;;;;;;187.75;49.92;;;;;;;-6.70;100.00;96696.97;2090431;28;20508;-62
2024/01/13 04:13:57;;;;;;;208.57;54.08;;;;;;;-6.63;100.00;96703.06;2089366;28;20049;-58
2024/01/13 04:14:58;;;;;;;190.75;53.03;;;;;;;-6.66;100.00;96702.13;2089918;28;20037;-58
2024/01/13 04:15:59;;;;;;;179.88;50.80;;;;;;;-6.63;100.00;96698.00;2089370;28;20067;-58
2024/01/13 04:17:00;;;;;;;188.38;52.55;;;;;;;-6.59;100.00;96703.22;2089918;28;20377;-58
2024/01/13 04:18:01;;;;;;;200.93;54.15;;;;;;;-6.56;100.00;96703.28;2090635;28;20052;-57
2024/01/13 04:19:02;;;;;;;201.20;51.45;;;;;;;-6.59;100.00;96703.22;2090031;28;20049;-58
2024/01/13 04:20:04;;;;;;;208.25;55.00;;;;;;;-6.55;100.00;96701.63;2090501;28;20041;-58
2024/01/13 04:21:05;;;;;;;204.50;56.22;;;;;;;-6.54;100.00;96701.69;2090400;28;20056;-58
2024/01/13 04:22:06;;;;;;;212.70;56.13;;;;;;;-6.53;100.00;96703.38;2091273;28;20049;-58
2024/01/13 04:23:07;;;;;;;204.07;54.75;;;;;;;-6.54;100.00;96704.22;2090473;28;20039;-58
2024/01/13 04:24:08;;;;;;;213.55;55.88;;;;;;;-6.52;100.00;96701.72;2090196;28;20400;-58
2024/01/13 04:25:09;;;;;;;210.02;54.70;;;;;;;-6.53;100.00;96705.91;2089845;28;20056;-58
2024/01/13 04:26:10;;;;;;;219.90;55.42;;;;;;;-6.54;100.00;96696.63;2089342;28;20045;-58
2024/01/13 04:27:11;;;;;;;204.75;55.45;;;;;;;-6.52;100.00;96696.66;2089939;28;20036;-58
2024/01/13 04:28:13;;;;;;;199.20;53.75;;;;;;;-6.52;100.00;96695.00;2090355;28;20511;-57
2024/01/13 04:29:15;;;;;;;204.95;56.05;;;;;;;-6.48;100.00;96694.28;2090309;28;20048;-58
2024/01/13 04:30:16;;;;;;;225.65;50.17;;;;;;;-6.56;100.00;96692.34;2090445;28;20071;-57
2024/01/13 04:31:18;;;;;;;230.57;53.80;;;;;;;-6.60;100.00;96693.91;2090379;28;20322;-58
2024/01/13 04:32:19;;;;;;;214.35;51.13;;;;;;;-6.63;100.00;96686.22;2090262;28;20045;-58
2024/01/13 04:33:20;;;;;;;198.13;52.72;;;;;;;-6.64;100.00;96682.00;2090418;28;20532;-58
2024/01/13 04:34:21;;;;;;;191.70;52.50;;;;;;;-6.63;100.00;96687.91;2090427;28;20028;-58
2024/01/13 04:35:22;;;;;;;232.20;53.58;;;;;;;-6.63;100.00;96682.84;2090219;28;20045;-58
2024/01/13 04:36:23;;;;;;;200.85;50.10;;;;;;;-6.67;100.00;96685.28;2090400;28;20075;-58